Iglesia, Argentina
Current Conditions -  °F | °C
As of 6:00 PM on Wednesday 26 Nov 2014 (Local Time) from SCSE Reporting Station
Scattered Clouds Scattered Clouds  
Wind Chill: 59°   Ceiling: Unl
Heat Index: 59°   Visibility: 6mi
Dew Point: 50°   Wind: 9mph
Humidity: 72%   Direction: 280°W
Pressure: 29.97"   Gusts: NA
Location:  30.17°S, 69.21°W
Report Text: SCSE 262100Z 28008KT 9999 SCT017 15/10 Q1015
Loading
Personal Weather Stations






























Interactive Weather Map New forecast layout! Learn more

10-Day Weather Forecast

Advertisements
Track Severe Weather on mobile